Condor Express — 9V5373 — position and weather

sailwx.info

Track history (hours):
 
Tides and Currents Weather Stations Pressure Air Temp Water Temp Dewpoint Dewpoint Depression Visibility Wind Speed Wind Dir Waves Ship Positions

Condor Express

Operator: Condor Marine Services

Last reported at 2020-Jan-26 01:06 UTC. Time now 2020-Jan-28 19:02 UTC.
Position S 41°59' E 175°32'.

Length 235 m; draft 14.5 m.

Type: Cargo ship. MMSI: 563014500.

Date/timePositionNaut miles runAvg speedWind from/ knotsBaromVisibWave heightAir tempDewpointWater temp
2020-Jan-26 01:06S 41°59' E 175°32'111.6
2020-Jan-26 00:59S 41°59' E 175°31'3011.9
2020-Jan-25 22:30S 41°43' E 174°57'35 8.7
2020-Jan-25 18:30S 41°15' E 174°30'510.6
2020-Jan-25 18:00S 41°09' E 174°31'511.0
2020-Jan-25 17:30S 41°04' E 174°33'1711.2
2020-Jan-25 16:00S 40°49' E 174°23'1211.9
2020-Jan-25 15:00S 40°38' E 174°16'1711.4
2020-Jan-25 13:30S 40°24' E 174°03'1211.9
2020-Jan-25 12:30S 40°22' E 173°48'611.6
2020-Jan-25 12:00S 40°20' E 173°40'611.6
2020-Jan-25 11:30S 40°19' E 173°33'3911.2
2020-Jan-25 08:00S 40°06' E 172°45'611.6
2020-Jan-25 07:30S 40°01' E 172°40'4511.2
2020-Jan-25 03:30S 39°28' E 172°01'2710.8
2020-Jan-25 01:00S 39°09' E 171°37'510.3
2020-Jan-25 00:30S 39°05' E 171°32'2110.4
2020-Jan-24 22:30S 38°50' E 171°14'  
Track history (hours):
 
Tides and Currents Weather Stations Pressure Air Temp Water Temp Dewpoint Dewpoint Depression Visibility Wind Speed Wind Dir Waves Ship Positions

Condor Express

Operator: Condor Marine Services

Last reported at 2020-Jan-26 01:06 UTC. Time now 2020-Jan-28 19:02 UTC.
Position S 41°59' E 175°32'.

Length 235 m; draft 14.5 m.

Type: Cargo ship. MMSI: 563014500.

Date/timePositionNaut miles runAvg speedWind from/ knotsBaromVisibWave heightAir tempDewpointWater temp
2020-Jan-26 01:06S 41°59' E 175°32'111.6
2020-Jan-26 00:59S 41°59' E 175°31'3011.9
2020-Jan-25 22:30S 41°43' E 174°57'35 8.7
2020-Jan-25 18:30S 41°15' E 174°30'510.6
2020-Jan-25 18:00S 41°09' E 174°31'511.0
2020-Jan-25 17:30S 41°04' E 174°33'1711.2
2020-Jan-25 16:00S 40°49' E 174°23'1211.9
2020-Jan-25 15:00S 40°38' E 174°16'1711.4
2020-Jan-25 13:30S 40°24' E 174°03'1211.9
2020-Jan-25 12:30S 40°22' E 173°48'611.6
2020-Jan-25 12:00S 40°20' E 173°40'611.6
2020-Jan-25 11:30S 40°19' E 173°33'3911.2
2020-Jan-25 08:00S 40°06' E 172°45'611.6
2020-Jan-25 07:30S 40°01' E 172°40'4511.2
2020-Jan-25 03:30S 39°28' E 172°01'2710.8
2020-Jan-25 01:00S 39°09' E 171°37'510.3
2020-Jan-25 00:30S 39°05' E 171°32'2110.4
2020-Jan-24 22:30S 38°50' E 171°14'  

Dump ship's entire track history